createdAt,value
2022-12-06T01:59:44.429Z,96471.53
2022-12-06T13:12:45.314Z,96761.66
2022-12-06T13:15:18.889Z,96772.47
2022-12-06T13:17:59.262Z,96787.97
2022-12-06T13:20:30.864Z,96801.94
2022-12-06T13:23:04.956Z,96806.34
2022-12-06T13:25:33.495Z,96809.06
2022-12-06T13:28:06.338Z,96808.41
2022-12-06T13:30:37.904Z,96802.84
2022-12-06T13:33:20.724Z,96791.00
2022-12-06T13:35:56.975Z,96797.22
2022-12-06T13:38:31.605Z,96812.28
2022-12-06T13:41:01.473Z,96826.63
2022-12-06T13:43:57.998Z,96825.53
2022-12-06T13:46:32.360Z,96829.09
2022-12-06T13:49:21.966Z,96827.47
2022-12-06T13:51:50.603Z,96826.38
2022-12-06T13:54:36.916Z,96832.09
2022-12-06T13:57:29.185Z,96835.63
2022-12-06T13:59:59.526Z,96826.16
2022-12-06T14:02:52.340Z,96841.25
2022-12-06T14:08:40.965Z,96832.22
2022-12-06T14:11:20.770Z,96840.19
2022-12-06T14:13:51.631Z,96834.66
2022-12-06T14:16:31.261Z,96838.31
2022-12-06T14:19:00.044Z,96834.81
2022-12-06T14:21:37.144Z,96841.13
2022-12-06T14:24:06.692Z,96840.13
2022-12-06T14:26:36.171Z,96837.22
2022-12-06T14:29:04.580Z,96833.00
2022-12-06T14:31:41.313Z,96839.91
2022-12-06T14:34:26.783Z,96840.75
2022-12-06T14:36:56.114Z,96835.75
2022-12-06T14:39:26.894Z,96840.16
2022-12-06T14:42:15.833Z,96847.31
2022-12-06T14:44:50.236Z,96834.66
2022-12-06T14:47:22.945Z,96846.50
2022-12-06T14:50:11.209Z,96841.66
2022-12-06T14:52:57.799Z,96830.94
2022-12-06T14:55:27.491Z,96836.03
2022-12-06T14:58:00.332Z,96832.63
2022-12-06T15:00:49.965Z,96827.44
2022-12-06T15:03:38.804Z,96813.13
2022-12-06T15:06:17.994Z,96822.72
2022-12-06T15:08:53.454Z,96822.84
2022-12-06T15:11:50.788Z,96821.50
2022-12-06T15:14:22.017Z,96807.38
2022-12-06T15:17:03.332Z,96808.06
2022-12-06T15:19:35.990Z,96806.38
2022-12-06T15:22:05.687Z,96807.06
2022-12-06T15:24:33.990Z,96807.84
2022-12-06T15:27:02.518Z,96807.94
2022-12-06T15:29:30.882Z,96800.25
2022-12-06T15:31:59.431Z,96805.00
2022-12-06T15:34:29.777Z,96802.84
2022-12-06T15:37:36.997Z,96808.53
2022-12-06T15:39:49.725Z,96812.22
2022-12-06T15:42:21.758Z,96803.53
2022-12-06T15:44:51.674Z,96796.19
2022-12-06T15:47:20.555Z,96806.03
2022-12-06T15:49:51.191Z,96800.50
2022-12-06T15:52:24.328Z,96788.75
2022-12-06T15:54:53.514Z,96800.50
2022-12-06T15:57:21.898Z,96801.25
2022-12-06T15:59:50.362Z,96803.84
2022-12-06T16:02:21.377Z,96811.19
2022-12-06T16:04:51.915Z,96802.59
2022-12-06T16:07:21.988Z,96805.44
2022-12-06T16:09:50.305Z,96797.88
2022-12-06T16:12:19.089Z,96805.44
2022-12-06T16:14:47.863Z,96797.44
2022-12-06T16:17:16.260Z,96800.59
2022-12-06T16:19:58.494Z,96791.22
2022-12-06T16:22:42.042Z,96792.41
2022-12-06T16:25:11.213Z,96793.66
2022-12-06T16:27:39.683Z,96799.19
2022-12-06T16:30:10.061Z,96794.69
2022-12-06T16:32:38.479Z,96790.88
2022-12-06T16:35:07.346Z,96790.94
2022-12-06T16:37:37.120Z,96785.91
2022-12-06T16:40:08.292Z,96788.59
2022-12-06T16:42:36.690Z,96785.44
2022-12-06T16:45:05.905Z,96787.47
2022-12-06T16:47:34.270Z,96792.31
2022-12-06T16:50:02.717Z,96790.53
2022-12-06T16:52:31.240Z,96796.94
2022-12-06T16:55:01.284Z,96789.66
2022-12-06T16:57:29.763Z,96789.66
2022-12-06T16:59:58.125Z,96789.09
2022-12-06T17:02:29.188Z,96789.50
2022-12-06T17:05:00.185Z,96794.56
2022-12-06T17:07:28.853Z,96788.94
2022-12-06T17:09:57.232Z,96796.59
2022-12-06T17:12:27.218Z,96801.16
2022-12-06T17:14:55.633Z,96801.47
2022-12-06T17:17:26.142Z,96792.22
2022-12-06T17:19:56.251Z,96795.50
2022-12-06T17:22:24.897Z,96802.50
2022-12-06T17:24:53.255Z,96792.78
2022-12-06T17:27:21.570Z,96797.72
2022-12-06T17:29:51.343Z,96786.69
2022-12-06T17:32:21.062Z,96775.59
2022-12-06T17:34:50.383Z,96785.72
2022-12-06T17:37:18.747Z,96774.34
2022-12-06T17:39:48.555Z,96779.38
2022-12-06T17:42:34.522Z,96793.50
2022-12-06T17:45:05.032Z,96780.84
2022-12-06T17:47:33.818Z,96767.34
2022-12-06T17:50:02.709Z,96761.28
2022-12-06T17:52:31.477Z,96755.19
2022-12-06T17:55:00.362Z,96759.78
2022-12-06T17:57:29.580Z,96760.53
2022-12-06T17:59:58.025Z,96762.75
2022-12-06T18:02:28.206Z,96767.63
2022-12-06T18:04:57.762Z,96775.06
2022-12-06T18:07:26.576Z,96766.59
2022-12-06T18:09:55.022Z,96769.06
2022-12-06T18:12:23.550Z,96767.63
2022-12-06T18:14:51.861Z,96762.88
2022-12-06T18:17:20.321Z,96758.13
2022-12-06T18:19:50.096Z,96755.94
2022-12-06T18:22:19.857Z,96754.72
2022-12-06T18:24:48.226Z,96756.81
2022-12-06T18:27:17.536Z,96751.78
2022-12-06T18:29:46.090Z,96769.59
2022-12-06T18:32:14.486Z,96771.56
2022-12-06T18:34:43.224Z,96768.41
2022-12-06T18:37:12.889Z,96768.03
2022-12-06T18:39:41.234Z,96768.03
2022-12-06T18:42:09.512Z,96775.31
2022-12-06T18:44:37.894Z,96771.44
2022-12-06T18:47:06.340Z,96784.97
2022-12-06T18:49:34.761Z,96786.13
2022-12-06T18:52:03.138Z,96782.38
2022-12-06T18:54:32.847Z,96779.78
2022-12-06T18:57:01.235Z,96786.19
2022-12-06T18:59:29.676Z,96781.50
2022-12-06T19:01:58.176Z,96788.81
2022-12-06T19:04:26.794Z,96790.47
2022-12-06T19:06:55.485Z,96788.88
2022-12-06T19:09:24.977Z,96785.56
2022-12-06T19:11:54.748Z,96784.19
2022-12-06T19:14:23.792Z,96773.63
2022-12-06T19:16:53.194Z,96790.66
2022-12-06T19:19:24.546Z,96775.06
2022-12-06T19:21:55.117Z,96777.78
2022-12-06T19:24:26.222Z,96779.25
2022-12-06T19:26:58.920Z,96781.09
2022-12-06T19:29:29.326Z,96784.41
2022-12-06T19:31:57.929Z,96779.16
2022-12-06T19:34:29.539Z,96785.06
2022-12-06T19:36:58.187Z,96790.31
2022-12-06T19:39:28.730Z,96786.56
2022-12-06T19:42:16.352Z,96796.00
2022-12-06T19:44:44.697Z,96794.50
2022-12-06T19:47:13.687Z,96797.34
2022-12-06T19:49:42.277Z,96787.59
2022-12-06T19:52:10.876Z,96793.47
2022-12-06T19:54:40.180Z,96785.13
2022-12-06T19:57:09.948Z,96797.34
2022-12-06T19:59:40.655Z,96802.16
2022-12-06T20:02:12.845Z,96785.84
2022-12-06T20:04:44.097Z,96781.81
2022-12-06T20:07:12.936Z,96788.16
2022-12-06T20:09:41.374Z,96784.41
2022-12-06T20:12:13.371Z,96787.34
2022-12-06T20:14:44.090Z,96787.28
2022-12-06T20:17:15.162Z,96797.44
2022-12-06T20:19:46.163Z,96795.91
2022-12-06T20:22:16.614Z,96790.66
2022-12-06T20:24:45.715Z,96795.47
2022-12-06T20:27:16.442Z,96802.09
2022-12-06T20:29:45.548Z,96812.94
2022-12-06T20:32:14.086Z,96806.03
2022-12-06T20:34:42.651Z,96798.28
2022-12-06T20:37:12.838Z,96788.44
2022-12-06T20:39:41.397Z,96802.66
2022-12-06T20:42:10.139Z,96795.56
2022-12-06T20:44:41.326Z,96798.50
2022-12-06T20:47:11.057Z,96802.00
2022-12-06T20:49:39.549Z,96793.09
2022-12-06T20:52:08.448Z,96796.47
2022-12-06T20:54:40.210Z,96797.63
2022-12-06T20:57:08.721Z,96791.03
2022-12-06T20:59:40.235Z,96800.97
2022-12-06T21:02:12.414Z,96800.13
2022-12-06T21:04:41.760Z,96791.88
2022-12-06T21:07:10.395Z,96789.00
2022-12-06T21:09:38.900Z,96787.44
2022-12-06T21:12:07.714Z,96785.78
2022-12-06T21:14:36.147Z,96783.97
2022-12-06T21:17:05.908Z,96781.53
2022-12-06T21:19:35.478Z,96793.56
2022-12-06T21:22:07.969Z,96793.06
2022-12-06T21:24:36.564Z,96798.44
2022-12-06T21:27:07.017Z,96798.34
2022-12-06T21:29:36.538Z,96799.59
2022-12-06T21:32:06.674Z,96799.66
2022-12-06T21:34:35.280Z,96813.75
2022-12-06T21:37:03.654Z,96802.53
2022-12-06T21:39:36.217Z,96809.06
2022-12-06T21:42:11.136Z,96805.03
2022-12-06T21:44:39.519Z,96805.78
2022-12-06T21:47:09.340Z,96810.81
2022-12-06T21:49:40.069Z,96801.38
2022-12-06T21:52:09.520Z,96800.53
2022-12-06T21:54:38.063Z,96808.84
2022-12-06T21:57:06.806Z,96808.13
2022-12-06T21:59:36.204Z,96798.28
2022-12-06T22:02:04.750Z,96807.97
2022-12-06T22:04:36.834Z,96812.09
2022-12-06T22:07:05.255Z,96812.81
2022-12-06T22:09:34.007Z,96811.75
2022-12-06T22:12:06.281Z,96812.81
2022-12-06T22:14:34.711Z,96830.28
2022-12-06T22:17:03.149Z,96826.00
2022-12-06T22:19:31.676Z,96814.69
2022-12-06T22:22:01.510Z,96829.66
2022-12-06T22:24:30.720Z,96819.22
2022-12-06T22:27:00.940Z,96829.00
2022-12-06T22:29:31.103Z,96818.34
2022-12-06T22:31:59.775Z,96832.84
2022-12-06T22:34:30.549Z,96824.25
2022-12-06T22:37:01.577Z,96834.03
2022-12-06T22:39:30.245Z,96830.13
2022-12-06T22:41:58.607Z,96829.56
2022-12-06T22:44:28.503Z,96821.53
2022-12-06T22:46:57.448Z,96824.00
2022-12-06T22:49:26.153Z,96820.94
2022-12-06T22:51:54.501Z,96826.41
2022-12-06T22:54:24.257Z,96817.28
2022-12-06T22:56:52.543Z,96822.34
2022-12-06T22:59:22.187Z,96824.09
2022-12-06T23:01:50.720Z,96823.66
2022-12-06T23:04:19.182Z,96820.97
2022-12-06T23:06:47.600Z,96832.31
2022-12-06T23:09:17.291Z,96820.41
2022-12-06T23:11:48.062Z,96822.81
2022-12-06T23:14:16.402Z,96819.06
2022-12-06T23:16:46.928Z,96817.78
2022-12-06T23:19:15.501Z,96821.59
2022-12-06T23:21:43.930Z,96818.31
2022-12-06T23:24:17.808Z,96814.63
2022-12-06T23:26:54.523Z,96809.78
2022-12-06T23:29:26.256Z,96815.03
2022-12-06T23:31:54.784Z,96817.91
2022-12-06T23:34:27.079Z,96807.41
2022-12-06T23:36:57.284Z,96806.81
2022-12-06T23:39:25.623Z,96808.13
2022-12-06T23:41:55.381Z,96819.34
2022-12-06T23:44:26.808Z,96817.50
2022-12-06T23:46:56.427Z,96814.91
2022-12-06T23:49:24.914Z,96814.19
2022-12-06T23:51:53.317Z,96811.81
2022-12-06T23:54:21.916Z,96812.97
2022-12-06T23:56:50.373Z,96808.56
2022-12-06T23:59:20.431Z,96813.31
